This is the latest recevied weather packets stored in our database for station/object KE0TNI-13. If no packets are shown the sender has not sent any weather packets the latest 10 day(s).
| Time | Temp. | Humidity | Pressure | Rain* | Wind** | Luminosity | Snow |
|---|---|---|---|---|---|---|---|
| 1777938643 | 3.89° C | 88% | 1015.8 hPa | 1.27 mm | - | 17 W/m² | - |
| 1777938340 | 3.89° C | 88% | 1015.8 hPa | 1.27 mm | - | 14 W/m² | - |
| 1777938037 | 3.89° C | 87% | 1015.4 hPa | 1.27 mm | - | 14 W/m² | - |
| 1777937732 | 3.89° C | 86% | 1015.6 hPa | 1.27 mm | - | 13 W/m² | - |
| 1777937429 | 3.89° C | 86% | 1015.2 hPa | 1.27 mm | - | 15 W/m² | - |
| 1777937126 | 4.44° C | 87% | 1015 hPa | 1.27 mm | - | 23 W/m² | - |
| 1777936824 | 4.44° C | 88% | 1015 hPa | 1.78 mm | - | 19 W/m² | - |
| 1777936520 | 4.44° C | 89% | 1014.9 hPa | 0.51 mm | - | 17 W/m² | - |
| 1777936216 | 5° C | 90% | 1014.8 hPa | 0 mm | - | 21 W/m² | - |
| 1777935913 | 5° C | 90% | 1014.8 hPa | 0.51 mm | - | 21 W/m² | - |
| 1777935612 | 4.44° C | 89% | 1014.5 hPa | 1.27 mm | - | 33 W/m² | - |
| 1777935308 | 4.44° C | 88% | 1014.8 hPa | 1.27 mm | - | 38 W/m² | - |
| 1777935006 | 4.44° C | 86% | 1014.3 hPa | 1.27 mm | - | 41 W/m² | - |
| 1777934702 | 5° C | 84% | 1014.4 hPa | 1.78 mm | - | 39 W/m² | - |
| 1777934399 | 5° C | 81% | 1014.4 hPa | 3.05 mm | - | 26 W/m² | - |
| 1777934096 | 5.56° C | 79% | 1014.4 hPa | 3.56 mm | - | 16 W/m² | - |
| 1777933791 | 6.67° C | 75% | 1014 hPa | 2.29 mm | - | 26 W/m² | - |
| 1777933489 | 7.22° C | 74% | 1014.3 hPa | 2.29 mm | - | 24 W/m² | - |
| 1777933186 | 8.33° C | 67% | 1014.1 hPa | 4.32 mm | - | 19 W/m² | - |
| 1777932883 | 10° C | 60% | 1013.9 hPa | 3.05 mm | - | 27 W/m² | - |
| 1777932580 | 11.11° C | 45% | 1013.9 hPa | 0 mm | - | 26 W/m² | - |
| 1777932277 | 11.11° C | 42% | 1013.9 hPa | 0 mm | - | 38 W/m² | - |
| 1777931974 | 11.11° C | 41% | 1014 hPa | 0 mm | - | 44 W/m² | - |
| 1777931670 | 11.67° C | 39% | 1013.6 hPa | 0 mm | - | 58 W/m² | - |
| 1777931367 | 11.67° C | 39% | 1013.6 hPa | 0 mm | - | 69 W/m² | - |
* Rain latest hour (hover to see other rain measurements)
** Current wind speed in m/s (hover to see current wind gust speed)